sensor_id;sensor_type;location;lat;lon;timestamp;P1;durP1;ratioP1;P2;durP2;ratioP2
70975;SDS011;58635;51.198;6.010;2023-07-29T00:00:01;3.10;;;1.48;;
70975;SDS011;58635;51.198;6.010;2023-07-29T00:02:27;3.15;;;1.52;;
70975;SDS011;58635;51.198;6.010;2023-07-29T00:04:56;2.45;;;1.60;;
70975;SDS011;58635;51.198;6.010;2023-07-29T00:07:23;2.47;;;1.77;;
70975;SDS011;58635;51.198;6.010;2023-07-29T00:09:49;3.58;;;1.90;;
70975;SDS011;58635;51.198;6.010;2023-07-29T00:12:16;3.03;;;1.77;;
70975;SDS011;58635;51.198;6.010;2023-07-29T00:14:42;2.70;;;1.67;;
70975;SDS011;58635;51.198;6.010;2023-07-29T00:17:08;4.47;;;1.80;;
70975;SDS011;58635;51.198;6.010;2023-07-29T00:19:35;4.70;;;1.75;;
70975;SDS011;58635;51.198;6.010;2023-07-29T00:22:01;3.53;;;1.63;;
70975;SDS011;58635;51.198;6.010;2023-07-29T00:24:28;4.55;;;1.75;;
70975;SDS011;58635;51.198;6.010;2023-07-29T00:26:54;3.85;;;1.70;;
70975;SDS011;58635;51.198;6.010;2023-07-29T00:29:21;3.38;;;1.80;;
70975;SDS011;58635;51.198;6.010;2023-07-29T00:31:47;2.65;;;1.70;;
70975;SDS011;58635;51.198;6.010;2023-07-29T00:34:13;2.45;;;1.60;;
70975;SDS011;58635;51.198;6.010;2023-07-29T00:36:45;2.17;;;1.65;;
70975;SDS011;58635;51.198;6.010;2023-07-29T00:39:11;2.90;;;1.67;;
70975;SDS011;58635;51.198;6.010;2023-07-29T00:41:38;4.82;;;1.77;;
70975;SDS011;58635;51.198;6.010;2023-07-29T00:44:04;3.33;;;1.50;;
70975;SDS011;58635;51.198;6.010;2023-07-29T00:46:32;3.13;;;1.50;;
70975;SDS011;58635;51.198;6.010;2023-07-29T00:49:00;3.92;;;1.60;;
70975;SDS011;58635;51.198;6.010;2023-07-29T00:51:27;3.03;;;1.60;;
70975;SDS011;58635;51.198;6.010;2023-07-29T00:53:53;6.65;;;2.03;;
70975;SDS011;58635;51.198;6.010;2023-07-29T00:56:19;2.90;;;1.88;;
70975;SDS011;58635;51.198;6.010;2023-07-29T00:58:46;3.20;;;1.70;;
70975;SDS011;58635;51.198;6.010;2023-07-29T01:01:12;5.95;;;2.00;;
70975;SDS011;58635;51.198;6.010;2023-07-29T01:03:39;4.05;;;2.00;;
70975;SDS011;58635;51.198;6.010;2023-07-29T01:06:11;4.40;;;2.20;;
70975;SDS011;58635;51.198;6.010;2023-07-29T01:08:51;3.83;;;2.10;;
70975;SDS011;58635;51.198;6.010;2023-07-29T01:14:18;3.45;;;1.98;;
70975;SDS011;58635;51.198;6.010;2023-07-29T01:16:55;5.80;;;1.92;;
70975;SDS011;58635;51.198;6.010;2023-07-29T01:22:14;4.70;;;2.00;;
70975;SDS011;58635;51.198;6.010;2023-07-29T01:24:42;4.03;;;2.00;;
70975;SDS011;58635;51.198;6.010;2023-07-29T01:27:08;3.35;;;2.25;;
70975;SDS011;58635;51.198;6.010;2023-07-29T01:29:34;5.50;;;2.03;;
70975;SDS011;58635;51.198;6.010;2023-07-29T01:32:04;4.40;;;1.80;;
70975;SDS011;58635;51.198;6.010;2023-07-29T01:34:39;2.88;;;1.80;;
70975;SDS011;58635;51.198;6.010;2023-07-29T01:37:12;5.65;;;2.10;;
70975;SDS011;58635;51.198;6.010;2023-07-29T01:39:44;3.35;;;2.03;;
70975;SDS011;58635;51.198;6.010;2023-07-29T01:42:12;9.95;;;2.50;;
70975;SDS011;58635;51.198;6.010;2023-07-29T01:44:38;4.03;;;2.20;;
70975;SDS011;58635;51.198;6.010;2023-07-29T01:47:05;3.25;;;2.42;;
70975;SDS011;58635;51.198;6.010;2023-07-29T01:49:32;3.67;;;2.20;;
70975;SDS011;58635;51.198;6.010;2023-07-29T01:51:58;5.63;;;2.38;;
70975;SDS011;58635;51.198;6.010;2023-07-29T01:54:25;3.45;;;2.20;;
70975;SDS011;58635;51.198;6.010;2023-07-29T01:56:51;3.22;;;2.10;;
70975;SDS011;58635;51.198;6.010;2023-07-29T01:59:17;3.92;;;2.28;;
70975;SDS011;58635;51.198;6.010;2023-07-29T02:01:44;3.03;;;2.35;;
70975;SDS011;58635;51.198;6.010;2023-07-29T02:04:12;3.50;;;2.25;;
70975;SDS011;58635;51.198;6.010;2023-07-29T02:06:39;4.07;;;2.22;;
70975;SDS011;58635;51.198;6.010;2023-07-29T02:09:05;4.18;;;2.47;;
70975;SDS011;58635;51.198;6.010;2023-07-29T02:11:31;5.93;;;2.83;;
70975;SDS011;58635;51.198;6.010;2023-07-29T02:13:58;4.85;;;2.20;;
70975;SDS011;58635;51.198;6.010;2023-07-29T02:16:24;4.78;;;2.50;;
70975;SDS011;58635;51.198;6.010;2023-07-29T02:18:50;4.47;;;2.65;;
70975;SDS011;58635;51.198;6.010;2023-07-29T02:21:17;4.38;;;2.72;;
70975;SDS011;58635;51.198;6.010;2023-07-29T02:23:43;5.32;;;2.97;;
70975;SDS011;58635;51.198;6.010;2023-07-29T02:26:10;4.10;;;2.60;;
70975;SDS011;58635;51.198;6.010;2023-07-29T02:28:36;7.20;;;2.58;;
70975;SDS011;58635;51.198;6.010;2023-07-29T02:31:36;4.50;;;2.20;;
70975;SDS011;58635;51.198;6.010;2023-07-29T02:33:55;4.73;;;2.53;;
70975;SDS011;58635;51.198;6.010;2023-07-29T02:36:22;3.63;;;2.70;;
70975;SDS011;58635;51.198;6.010;2023-07-29T02:38:48;4.68;;;2.38;;
70975;SDS011;58635;51.198;6.010;2023-07-29T02:41:15;4.32;;;2.55;;
70975;SDS011;58635;51.198;6.010;2023-07-29T02:43:42;4.65;;;2.60;;
70975;SDS011;58635;51.198;6.010;2023-07-29T02:46:09;5.10;;;2.72;;
70975;SDS011;58635;51.198;6.010;2023-07-29T02:48:36;6.75;;;2.63;;
70975;SDS011;58635;51.198;6.010;2023-07-29T02:51:02;5.15;;;2.80;;
70975;SDS011;58635;51.198;6.010;2023-07-29T02:53:29;3.75;;;2.53;;
70975;SDS011;58635;51.198;6.010;2023-07-29T02:55:55;3.72;;;2.20;;
70975;SDS011;58635;51.198;6.010;2023-07-29T02:58:21;4.00;;;3.13;;
70975;SDS011;58635;51.198;6.010;2023-07-29T03:00:48;7.85;;;2.92;;
70975;SDS011;58635;51.198;6.010;2023-07-29T03:03:14;5.22;;;2.30;;
70975;SDS011;58635;51.198;6.010;2023-07-29T03:05:41;3.47;;;2.30;;
70975;SDS011;58635;51.198;6.010;2023-07-29T03:08:07;3.70;;;2.60;;
70975;SDS011;58635;51.198;6.010;2023-07-29T03:10:34;3.13;;;2.05;;
70975;SDS011;58635;51.198;6.010;2023-07-29T03:13:02;3.35;;;1.90;;
70975;SDS011;58635;51.198;6.010;2023-07-29T03:15:29;2.63;;;1.88;;
70975;SDS011;58635;51.198;6.010;2023-07-29T03:17:55;3.70;;;1.85;;
70975;SDS011;58635;51.198;6.010;2023-07-29T03:20:21;5.18;;;2.00;;
70975;SDS011;58635;51.198;6.010;2023-07-29T03:22:48;4.82;;;1.70;;
70975;SDS011;58635;51.198;6.010;2023-07-29T03:25:14;3.63;;;2.08;;
70975;SDS011;58635;51.198;6.010;2023-07-29T03:27:40;3.45;;;2.03;;
70975;SDS011;58635;51.198;6.010;2023-07-29T03:30:07;2.58;;;1.67;;
70975;SDS011;58635;51.198;6.010;2023-07-29T03:32:33;2.60;;;1.73;;
70975;SDS011;58635;51.198;6.010;2023-07-29T03:35:00;3.35;;;1.67;;
70975;SDS011;58635;51.198;6.010;2023-07-29T03:37:26;3.28;;;1.60;;
70975;SDS011;58635;51.198;6.010;2023-07-29T03:39:53;5.97;;;1.80;;
70975;SDS011;58635;51.198;6.010;2023-07-29T03:42:19;3.28;;;1.77;;
70975;SDS011;58635;51.198;6.010;2023-07-29T03:44:45;3.88;;;1.80;;
70975;SDS011;58635;51.198;6.010;2023-07-29T03:47:12;6.97;;;1.88;;
70975;SDS011;58635;51.198;6.010;2023-07-29T03:49:38;4.30;;;2.00;;
70975;SDS011;58635;51.198;6.010;2023-07-29T03:52:05;4.57;;;1.67;;
70975;SDS011;58635;51.198;6.010;2023-07-29T03:54:31;3.53;;;2.00;;
70975;SDS011;58635;51.198;6.010;2023-07-29T03:56:58;3.20;;;1.90;;
70975;SDS011;58635;51.198;6.010;2023-07-29T03:59:24;3.10;;;1.83;;
70975;SDS011;58635;51.198;6.010;2023-07-29T04:01:50;3.10;;;1.70;;
70975;SDS011;58635;51.198;6.010;2023-07-29T04:04:20;3.38;;;2.05;;
70975;SDS011;58635;51.198;6.010;2023-07-29T04:06:46;3.10;;;1.92;;
70975;SDS011;58635;51.198;6.010;2023-07-29T04:09:13;4.40;;;1.85;;
70975;SDS011;58635;51.198;6.010;2023-07-29T04:11:40;3.70;;;1.92;;
70975;SDS011;58635;51.198;6.010;2023-07-29T04:14:07;3.38;;;1.70;;
70975;SDS011;58635;51.198;6.010;2023-07-29T04:16:33;4.22;;;1.90;;
70975;SDS011;58635;51.198;6.010;2023-07-29T04:19:00;3.13;;;1.77;;
70975;SDS011;58635;51.198;6.010;2023-07-29T04:21:26;4.18;;;1.52;;
70975;SDS011;58635;51.198;6.010;2023-07-29T04:23:52;4.22;;;1.80;;
70975;SDS011;58635;51.198;6.010;2023-07-29T04:26:19;3.85;;;1.85;;
70975;SDS011;58635;51.198;6.010;2023-07-29T04:28:45;4.63;;;1.77;;
70975;SDS011;58635;51.198;6.010;2023-07-29T04:31:11;3.35;;;2.08;;
70975;SDS011;58635;51.198;6.010;2023-07-29T04:33:38;4.43;;;1.95;;
70975;SDS011;58635;51.198;6.010;2023-07-29T04:36:04;3.35;;;1.67;;
70975;SDS011;58635;51.198;6.010;2023-07-29T04:38:31;3.70;;;1.75;;
70975;SDS011;58635;51.198;6.010;2023-07-29T04:40:59;3.75;;;2.00;;
70975;SDS011;58635;51.198;6.010;2023-07-29T04:43:28;2.83;;;1.77;;
70975;SDS011;58635;51.198;6.010;2023-07-29T04:45:57;3.75;;;2.00;;
70975;SDS011;58635;51.198;6.010;2023-07-29T04:48:23;4.13;;;2.17;;
70975;SDS011;58635;51.198;6.010;2023-07-29T04:50:50;3.17;;;1.70;;
70975;SDS011;58635;51.198;6.010;2023-07-29T04:53:16;4.47;;;2.13;;
70975;SDS011;58635;51.198;6.010;2023-07-29T04:55:42;4.82;;;2.10;;
70975;SDS011;58635;51.198;6.010;2023-07-29T04:58:09;4.03;;;2.00;;
70975;SDS011;58635;51.198;6.010;2023-07-29T05:00:36;3.28;;;2.00;;
70975;SDS011;58635;51.198;6.010;2023-07-29T05:03:02;4.88;;;2.00;;
70975;SDS011;58635;51.198;6.010;2023-07-29T05:05:28;4.13;;;1.90;;
70975;SDS011;58635;51.198;6.010;2023-07-29T05:07:55;2.72;;;1.70;;
70975;SDS011;58635;51.198;6.010;2023-07-29T05:10:21;2.63;;;1.60;;
70975;SDS011;58635;51.198;6.010;2023-07-29T05:12:47;2.63;;;1.50;;
70975;SDS011;58635;51.198;6.010;2023-07-29T05:15:14;2.47;;;1.70;;
70975;SDS011;58635;51.198;6.010;2023-07-29T05:17:41;2.15;;;1.48;;
70975;SDS011;58635;51.198;6.010;2023-07-29T05:20:07;3.08;;;1.70;;
70975;SDS011;58635;51.198;6.010;2023-07-29T05:22:34;3.15;;;1.50;;
70975;SDS011;58635;51.198;6.010;2023-07-29T05:25:00;2.28;;;1.33;;
70975;SDS011;58635;51.198;6.010;2023-07-29T05:27:27;3.53;;;1.70;;
70975;SDS011;58635;51.198;6.010;2023-07-29T05:29:53;5.82;;;1.58;;
70975;SDS011;58635;51.198;6.010;2023-07-29T05:32:19;3.58;;;1.58;;
70975;SDS011;58635;51.198;6.010;2023-07-29T05:34:46;3.72;;;1.70;;
70975;SDS011;58635;51.198;6.010;2023-07-29T05:37:12;3.83;;;1.40;;
70975;SDS011;58635;51.198;6.010;2023-07-29T05:39:39;2.90;;;1.40;;
70975;SDS011;58635;51.198;6.010;2023-07-29T05:42:05;4.68;;;1.60;;
70975;SDS011;58635;51.198;6.010;2023-07-29T05:44:32;4.47;;;1.35;;
70975;SDS011;58635;51.198;6.010;2023-07-29T05:46:58;2.15;;;1.30;;
70975;SDS011;58635;51.198;6.010;2023-07-29T05:49:25;6.22;;;1.60;;
70975;SDS011;58635;51.198;6.010;2023-07-29T05:51:51;2.65;;;1.48;;
70975;SDS011;58635;51.198;6.010;2023-07-29T05:54:18;5.28;;;1.60;;
70975;SDS011;58635;51.198;6.010;2023-07-29T05:56:45;2.63;;;1.50;;
70975;SDS011;58635;51.198;6.010;2023-07-29T05:59:11;2.35;;;1.40;;
70975;SDS011;58635;51.198;6.010;2023-07-29T06:01:38;4.22;;;1.58;;
70975;SDS011;58635;51.198;6.010;2023-07-29T06:04:04;3.28;;;1.60;;
70975;SDS011;58635;51.198;6.010;2023-07-29T06:06:30;4.93;;;1.80;;
70975;SDS011;58635;51.198;6.010;2023-07-29T06:08:57;4.22;;;1.67;;
70975;SDS011;58635;51.198;6.010;2023-07-29T06:11:24;3.40;;;1.70;;
70975;SDS011;58635;51.198;6.010;2023-07-29T06:13:50;3.78;;;1.60;;
70975;SDS011;58635;51.198;6.010;2023-07-29T06:16:17;3.30;;;1.48;;
70975;SDS011;58635;51.198;6.010;2023-07-29T06:18:43;4.32;;;1.48;;
70975;SDS011;58635;51.198;6.010;2023-07-29T06:21:10;2.58;;;1.30;;
70975;SDS011;58635;51.198;6.010;2023-07-29T06:23:38;3.25;;;1.60;;
70975;SDS011;58635;51.198;6.010;2023-07-29T06:26:04;3.22;;;1.52;;
70975;SDS011;58635;51.198;6.010;2023-07-29T06:28:32;2.65;;;1.40;;
70975;SDS011;58635;51.198;6.010;2023-07-29T06:30:59;1.83;;;1.15;;
70975;SDS011;58635;51.198;6.010;2023-07-29T06:33:25;3.20;;;1.38;;
70975;SDS011;58635;51.198;6.010;2023-07-29T06:35:51;3.53;;;1.40;;
70975;SDS011;58635;51.198;6.010;2023-07-29T06:38:18;1.73;;;1.27;;
70975;SDS011;58635;51.198;6.010;2023-07-29T06:40:48;3.33;;;1.50;;
70975;SDS011;58635;51.198;6.010;2023-07-29T06:43:14;2.13;;;1.17;;
70975;SDS011;58635;51.198;6.010;2023-07-29T06:45:41;3.10;;;1.45;;
70975;SDS011;58635;51.198;6.010;2023-07-29T06:48:11;3.13;;;1.50;;
70975;SDS011;58635;51.198;6.010;2023-07-29T06:50:38;2.72;;;1.30;;
70975;SDS011;58635;51.198;6.010;2023-07-29T06:53:04;3.47;;;1.40;;
70975;SDS011;58635;51.198;6.010;2023-07-29T06:55:30;3.55;;;1.60;;
70975;SDS011;58635;51.198;6.010;2023-07-29T06:57:57;3.00;;;1.25;;
70975;SDS011;58635;51.198;6.010;2023-07-29T07:00:23;3.42;;;1.30;;
70975;SDS011;58635;51.198;6.010;2023-07-29T07:02:50;2.45;;;1.50;;
70975;SDS011;58635;51.198;6.010;2023-07-29T07:05:16;4.05;;;1.70;;
70975;SDS011;58635;51.198;6.010;2023-07-29T07:07:43;3.03;;;1.48;;
70975;SDS011;58635;51.198;6.010;2023-07-29T07:10:09;2.05;;;1.20;;
70975;SDS011;58635;51.198;6.010;2023-07-29T07:12:36;2.80;;;1.02;;
70975;SDS011;58635;51.198;6.010;2023-07-29T07:15:02;2.00;;;1.30;;
70975;SDS011;58635;51.198;6.010;2023-07-29T07:17:29;2.15;;;1.02;;
70975;SDS011;58635;51.198;6.010;2023-07-29T07:19:55;3.67;;;1.23;;
70975;SDS011;58635;51.198;6.010;2023-07-29T07:22:21;1.85;;;1.10;;
70975;SDS011;58635;51.198;6.010;2023-07-29T07:24:48;2.13;;;1.10;;
70975;SDS011;58635;51.198;6.010;2023-07-29T07:27:20;1.48;;;0.98;;
70975;SDS011;58635;51.198;6.010;2023-07-29T07:29:47;1.77;;;0.90;;
70975;SDS011;58635;51.198;6.010;2023-07-29T07:32:13;1.90;;;1.08;;
70975;SDS011;58635;51.198;6.010;2023-07-29T07:34:39;2.17;;;1.10;;
70975;SDS011;58635;51.198;6.010;2023-07-29T07:37:06;2.85;;;0.90;;
70975;SDS011;58635;51.198;6.010;2023-07-29T07:39:32;1.45;;;1.05;;
70975;SDS011;58635;51.198;6.010;2023-07-29T07:41:58;4.18;;;1.30;;
70975;SDS011;58635;51.198;6.010;2023-07-29T07:44:25;3.42;;;1.65;;
70975;SDS011;58635;51.198;6.010;2023-07-29T07:46:52;3.83;;;2.25;;
70975;SDS011;58635;51.198;6.010;2023-07-29T07:49:19;4.20;;;1.40;;
70975;SDS011;58635;51.198;6.010;2023-07-29T07:51:45;2.45;;;1.30;;
70975;SDS011;58635;51.198;6.010;2023-07-29T07:54:12;2.30;;;1.30;;
70975;SDS011;58635;51.198;6.010;2023-07-29T07:56:38;2.03;;;1.10;;
70975;SDS011;58635;51.198;6.010;2023-07-29T07:59:05;2.25;;;1.10;;
70975;SDS011;58635;51.198;6.010;2023-07-29T08:01:35;3.88;;;1.30;;
70975;SDS011;58635;51.198;6.010;2023-07-29T08:04:02;2.00;;;1.27;;
70975;SDS011;58635;51.198;6.010;2023-07-29T08:06:29;2.45;;;1.20;;
70975;SDS011;58635;51.198;6.010;2023-07-29T08:09:00;1.83;;;1.20;;
70975;SDS011;58635;51.198;6.010;2023-07-29T08:11:32;2.72;;;1.30;;
70975;SDS011;58635;51.198;6.010;2023-07-29T08:13:58;2.03;;;1.10;;
70975;SDS011;58635;51.198;6.010;2023-07-29T08:16:31;3.28;;;1.17;;
70975;SDS011;58635;51.198;6.010;2023-07-29T08:18:57;2.70;;;1.40;;
70975;SDS011;58635;51.198;6.010;2023-07-29T08:21:23;2.47;;;1.27;;
70975;SDS011;58635;51.198;6.010;2023-07-29T08:23:50;2.25;;;1.20;;
70975;SDS011;58635;51.198;6.010;2023-07-29T08:26:16;3.83;;;1.40;;
70975;SDS011;58635;51.198;6.010;2023-07-29T08:28:42;2.85;;;1.65;;
70975;SDS011;58635;51.198;6.010;2023-07-29T08:31:09;3.53;;;1.73;;
70975;SDS011;58635;51.198;6.010;2023-07-29T08:33:35;3.22;;;1.35;;
70975;SDS011;58635;51.198;6.010;2023-07-29T08:36:02;1.95;;;1.10;;
70975;SDS011;58635;51.198;6.010;2023-07-29T08:38:29;3.22;;;1.20;;
70975;SDS011;58635;51.198;6.010;2023-07-29T08:46:29;3.92;;;1.42;;
70975;SDS011;58635;51.198;6.010;2023-07-29T08:48:56;2.55;;;1.25;;
70975;SDS011;58635;51.198;6.010;2023-07-29T08:51:23;2.15;;;1.10;;
70975;SDS011;58635;51.198;6.010;2023-07-29T08:53:51;2.58;;;1.20;;
70975;SDS011;58635;51.198;6.010;2023-07-29T08:56:17;3.97;;;1.50;;
70975;SDS011;58635;51.198;6.010;2023-07-29T08:58:44;3.10;;;1.20;;
70975;SDS011;58635;51.198;6.010;2023-07-29T09:01:11;2.50;;;0.98;;
70975;SDS011;58635;51.198;6.010;2023-07-29T09:03:37;1.85;;;1.10;;
70975;SDS011;58635;51.198;6.010;2023-07-29T09:06:04;2.13;;;1.00;;
70975;SDS011;58635;51.198;6.010;2023-07-29T09:08:31;2.17;;;1.10;;
70975;SDS011;58635;51.198;6.010;2023-07-29T09:10:58;2.10;;;1.10;;
70975;SDS011;58635;51.198;6.010;2023-07-29T09:13:25;2.22;;;1.08;;
70975;SDS011;58635;51.198;6.010;2023-07-29T09:15:55;2.60;;;1.30;;
70975;SDS011;58635;51.198;6.010;2023-07-29T09:18:23;1.63;;;1.08;;
70975;SDS011;58635;51.198;6.010;2023-07-29T09:20:52;3.95;;;1.48;;
70975;SDS011;58635;51.198;6.010;2023-07-29T09:23:19;3.05;;;1.23;;
70975;SDS011;58635;51.198;6.010;2023-07-29T09:25:46;1.75;;;1.10;;
70975;SDS011;58635;51.198;6.010;2023-07-29T09:28:14;1.98;;;1.02;;
70975;SDS011;58635;51.198;6.010;2023-07-29T09:30:42;1.73;;;1.10;;
70975;SDS011;58635;51.198;6.010;2023-07-29T09:33:11;2.67;;;1.30;;
70975;SDS011;58635;51.198;6.010;2023-07-29T09:35:38;3.00;;;1.30;;
70975;SDS011;58635;51.198;6.010;2023-07-29T09:38:05;2.67;;;1.42;;
70975;SDS011;58635;51.198;6.010;2023-07-29T09:40:36;2.17;;;1.20;;
70975;SDS011;58635;51.198;6.010;2023-07-29T09:43:04;3.45;;;1.23;;
70975;SDS011;58635;51.198;6.010;2023-07-29T09:45:32;2.13;;;1.20;;
70975;SDS011;58635;51.198;6.010;2023-07-29T09:48:00;2.78;;;1.30;;
70975;SDS011;58635;51.198;6.010;2023-07-29T09:50:27;4.15;;;1.20;;
70975;SDS011;58635;51.198;6.010;2023-07-29T09:52:54;2.72;;;1.20;;
70975;SDS011;58635;51.198;6.010;2023-07-29T09:55:24;4.15;;;1.38;;
70975;SDS011;58635;51.198;6.010;2023-07-29T09:57:58;3.30;;;1.48;;
70975;SDS011;58635;51.198;6.010;2023-07-29T10:00:30;2.00;;;1.25;;
70975;SDS011;58635;51.198;6.010;2023-07-29T10:02:58;2.53;;;1.20;;
70975;SDS011;58635;51.198;6.010;2023-07-29T10:05:28;4.13;;;1.80;;
70975;SDS011;58635;51.198;6.010;2023-07-29T10:07:56;3.13;;;1.60;;
70975;SDS011;58635;51.198;6.010;2023-07-29T10:10:22;2.05;;;0.98;;
70975;SDS011;58635;51.198;6.010;2023-07-29T10:12:50;2.28;;;1.30;;
70975;SDS011;58635;51.198;6.010;2023-07-29T10:15:16;2.80;;;1.20;;
70975;SDS011;58635;51.198;6.010;2023-07-29T10:17:43;4.40;;;1.20;;
70975;SDS011;58635;51.198;6.010;2023-07-29T10:20:12;2.85;;;1.17;;
70975;SDS011;58635;51.198;6.010;2023-07-29T10:22:39;1.45;;;1.10;;
70975;SDS011;58635;51.198;6.010;2023-07-29T10:25:07;2.45;;;1.20;;
70975;SDS011;58635;51.198;6.010;2023-07-29T10:27:48;3.28;;;1.08;;
70975;SDS011;58635;51.198;6.010;2023-07-29T10:30:18;5.45;;;1.40;;
70975;SDS011;58635;51.198;6.010;2023-07-29T10:32:45;2.63;;;1.42;;
70975;SDS011;58635;51.198;6.010;2023-07-29T10:35:12;3.60;;;1.20;;
70975;SDS011;58635;51.198;6.010;2023-07-29T10:37:39;4.00;;;1.50;;
70975;SDS011;58635;51.198;6.010;2023-07-29T10:40:07;3.47;;;1.50;;
70975;SDS011;58635;51.198;6.010;2023-07-29T10:42:34;2.85;;;1.20;;
70975;SDS011;58635;51.198;6.010;2023-07-29T10:45:16;2.00;;;1.10;;
70975;SDS011;58635;51.198;6.010;2023-07-29T10:47:49;4.55;;;1.35;;
70975;SDS011;58635;51.198;6.010;2023-07-29T10:50:18;2.78;;;1.50;;
70975;SDS011;58635;51.198;6.010;2023-07-29T10:52:50;3.22;;;1.40;;
70975;SDS011;58635;51.198;6.010;2023-07-29T10:57:51;3.08;;;1.35;;
70975;SDS011;58635;51.198;6.010;2023-07-29T11:00:21;2.17;;;1.13;;
70975;SDS011;58635;51.198;6.010;2023-07-29T11:02:58;2.50;;;1.40;;
70975;SDS011;58635;51.198;6.010;2023-07-29T11:05:27;3.10;;;1.88;;
70975;SDS011;58635;51.198;6.010;2023-07-29T11:08:15;2.95;;;1.40;;
70975;SDS011;58635;51.198;6.010;2023-07-29T11:10:44;3.22;;;2.08;;
70975;SDS011;58635;51.198;6.010;2023-07-29T11:13:10;4.72;;;2.97;;
70975;SDS011;58635;51.198;6.010;2023-07-29T11:15:38;2.03;;;1.33;;
70975;SDS011;58635;51.198;6.010;2023-07-29T11:18:05;2.90;;;1.35;;
70975;SDS011;58635;51.198;6.010;2023-07-29T11:20:34;2.72;;;1.20;;
70975;SDS011;58635;51.198;6.010;2023-07-29T11:23:01;4.32;;;1.50;;
70975;SDS011;58635;51.198;6.010;2023-07-29T11:25:30;2.20;;;1.15;;
70975;SDS011;58635;51.198;6.010;2023-07-29T11:27:57;4.63;;;1.52;;
70975;SDS011;58635;51.198;6.010;2023-07-29T11:30:25;2.72;;;1.50;;
70975;SDS011;58635;51.198;6.010;2023-07-29T11:32:56;4.10;;;1.30;;
70975;SDS011;58635;51.198;6.010;2023-07-29T11:35:23;2.22;;;1.23;;
70975;SDS011;58635;51.198;6.010;2023-07-29T11:37:51;3.30;;;1.70;;
70975;SDS011;58635;51.198;6.010;2023-07-29T11:40:18;5.07;;;2.33;;
70975;SDS011;58635;51.198;6.010;2023-07-29T11:42:46;3.40;;;1.50;;
70975;SDS011;58635;51.198;6.010;2023-07-29T11:45:14;2.65;;;1.30;;
70975;SDS011;58635;51.198;6.010;2023-07-29T11:47:40;3.92;;;1.30;;
70975;SDS011;58635;51.198;6.010;2023-07-29T11:50:08;2.25;;;1.40;;
70975;SDS011;58635;51.198;6.010;2023-07-29T11:52:37;2.65;;;1.40;;
70975;SDS011;58635;51.198;6.010;2023-07-29T11:55:04;3.63;;;1.50;;
70975;SDS011;58635;51.198;6.010;2023-07-29T11:57:35;2.25;;;1.35;;
70975;SDS011;58635;51.198;6.010;2023-07-29T12:00:03;1.90;;;1.13;;
70975;SDS011;58635;51.198;6.010;2023-07-29T12:02:33;3.15;;;1.35;;
70975;SDS011;58635;51.198;6.010;2023-07-29T12:05:03;2.17;;;1.13;;
70975;SDS011;58635;51.198;6.010;2023-07-29T12:07:31;2.83;;;1.63;;
70975;SDS011;58635;51.198;6.010;2023-07-29T12:09:59;3.75;;;1.33;;
70975;SDS011;58635;51.198;6.010;2023-07-29T12:12:25;3.95;;;1.42;;
70975;SDS011;58635;51.198;6.010;2023-07-29T12:14:53;4.20;;;1.35;;
70975;SDS011;58635;51.198;6.010;2023-07-29T12:17:20;3.15;;;2.10;;
70975;SDS011;58635;51.198;6.010;2023-07-29T12:19:47;4.53;;;3.08;;
70975;SDS011;58635;51.198;6.010;2023-07-29T12:22:17;2.47;;;1.33;;
70975;SDS011;58635;51.198;6.010;2023-07-29T12:24:45;1.77;;;1.30;;
70975;SDS011;58635;51.198;6.010;2023-07-29T12:27:11;3.65;;;1.58;;
70975;SDS011;58635;51.198;6.010;2023-07-29T12:29:39;3.05;;;1.52;;
70975;SDS011;58635;51.198;6.010;2023-07-29T12:32:08;3.55;;;1.30;;
70975;SDS011;58635;51.198;6.010;2023-07-29T12:34:35;2.10;;;1.40;;
70975;SDS011;58635;51.198;6.010;2023-07-29T12:37:03;3.15;;;1.60;;
70975;SDS011;58635;51.198;6.010;2023-07-29T12:39:34;4.90;;;1.50;;
70975;SDS011;58635;51.198;6.010;2023-07-29T12:42:02;3.15;;;1.60;;
70975;SDS011;58635;51.198;6.010;2023-07-29T12:44:30;2.78;;;1.35;;
70975;SDS011;58635;51.198;6.010;2023-07-29T12:47:01;3.40;;;1.60;;
70975;SDS011;58635;51.198;6.010;2023-07-29T12:49:29;2.45;;;1.50;;
70975;SDS011;58635;51.198;6.010;2023-07-29T12:51:59;4.25;;;1.70;;
70975;SDS011;58635;51.198;6.010;2023-07-29T12:54:26;3.33;;;1.60;;
70975;SDS011;58635;51.198;6.010;2023-07-29T12:56:52;4.45;;;1.80;;
70975;SDS011;58635;51.198;6.010;2023-07-29T12:59:18;2.53;;;1.70;;
70975;SDS011;58635;51.198;6.010;2023-07-29T13:01:45;2.78;;;1.60;;
70975;SDS011;58635;51.198;6.010;2023-07-29T13:04:11;3.75;;;1.55;;
70975;SDS011;58635;51.198;6.010;2023-07-29T13:06:38;3.40;;;2.00;;
70975;SDS011;58635;51.198;6.010;2023-07-29T13:09:04;3.10;;;1.73;;
70975;SDS011;58635;51.198;6.010;2023-07-29T13:11:33;3.17;;;1.50;;
70975;SDS011;58635;51.198;6.010;2023-07-29T13:14:00;2.72;;;1.55;;
70975;SDS011;58635;51.198;6.010;2023-07-29T13:16:27;4.82;;;1.60;;
70975;SDS011;58635;51.198;6.010;2023-07-29T13:18:54;2.85;;;1.48;;
70975;SDS011;58635;51.198;6.010;2023-07-29T13:21:21;2.60;;;1.48;;
70975;SDS011;58635;51.198;6.010;2023-07-29T13:23:48;4.70;;;1.40;;
70975;SDS011;58635;51.198;6.010;2023-07-29T13:26:14;2.28;;;1.50;;
70975;SDS011;58635;51.198;6.010;2023-07-29T13:28:40;3.13;;;1.70;;
70975;SDS011;58635;51.198;6.010;2023-07-29T13:31:07;3.13;;;1.52;;
70975;SDS011;58635;51.198;6.010;2023-07-29T13:33:33;3.75;;;2.05;;
70975;SDS011;58635;51.198;6.010;2023-07-29T13:36:00;2.65;;;1.52;;
70975;SDS011;58635;51.198;6.010;2023-07-29T13:38:29;3.95;;;1.33;;
70975;SDS011;58635;51.198;6.010;2023-07-29T13:40:56;2.80;;;1.48;;
70975;SDS011;58635;51.198;6.010;2023-07-29T13:43:22;2.13;;;1.20;;
70975;SDS011;58635;51.198;6.010;2023-07-29T13:45:49;2.38;;;1.33;;
70975;SDS011;58635;51.198;6.010;2023-07-29T13:48:16;2.00;;;1.40;;
70975;SDS011;58635;51.198;6.010;2023-07-29T13:50:42;2.80;;;1.38;;
70975;SDS011;58635;51.198;6.010;2023-07-29T13:53:09;3.20;;;1.48;;
70975;SDS011;58635;51.198;6.010;2023-07-29T13:55:36;2.97;;;1.58;;
70975;SDS011;58635;51.198;6.010;2023-07-29T13:58:03;3.78;;;1.52;;
70975;SDS011;58635;51.198;6.010;2023-07-29T14:00:29;3.30;;;1.40;;
70975;SDS011;58635;51.198;6.010;2023-07-29T14:02:55;3.40;;;1.30;;
70975;SDS011;58635;51.198;6.010;2023-07-29T14:05:22;4.00;;;1.45;;
70975;SDS011;58635;51.198;6.010;2023-07-29T14:07:48;3.45;;;2.25;;
70975;SDS011;58635;51.198;6.010;2023-07-29T14:10:14;4.20;;;2.58;;
70975;SDS011;58635;51.198;6.010;2023-07-29T14:12:41;2.63;;;1.60;;
70975;SDS011;58635;51.198;6.010;2023-07-29T14:15:07;3.08;;;1.60;;
70975;SDS011;58635;51.198;6.010;2023-07-29T14:17:34;2.22;;;1.27;;
70975;SDS011;58635;51.198;6.010;2023-07-29T14:20:00;2.38;;;1.38;;
70975;SDS011;58635;51.198;6.010;2023-07-29T14:22:27;2.95;;;1.50;;
70975;SDS011;58635;51.198;6.010;2023-07-29T14:24:53;2.90;;;1.38;;
70975;SDS011;58635;51.198;6.010;2023-07-29T14:27:20;2.95;;;1.42;;
70975;SDS011;58635;51.198;6.010;2023-07-29T14:29:46;3.08;;;1.30;;
70975;SDS011;58635;51.198;6.010;2023-07-29T14:32:12;3.63;;;1.27;;
70975;SDS011;58635;51.198;6.010;2023-07-29T14:34:39;1.88;;;1.30;;
70975;SDS011;58635;51.198;6.010;2023-07-29T14:37:05;3.80;;;1.33;;
70975;SDS011;58635;51.198;6.010;2023-07-29T14:39:32;3.97;;;1.42;;
70975;SDS011;58635;51.198;6.010;2023-07-29T14:41:59;2.05;;;1.27;;
70975;SDS011;58635;51.198;6.010;2023-07-29T14:44:25;2.10;;;1.30;;
70975;SDS011;58635;51.198;6.010;2023-07-29T14:46:51;3.13;;;1.27;;
70975;SDS011;58635;51.198;6.010;2023-07-29T14:49:18;3.33;;;1.88;;
70975;SDS011;58635;51.198;6.010;2023-07-29T14:51:44;2.25;;;1.50;;
70975;SDS011;58635;51.198;6.010;2023-07-29T14:54:10;2.70;;;1.55;;
70975;SDS011;58635;51.198;6.010;2023-07-29T14:56:37;2.17;;;1.40;;
70975;SDS011;58635;51.198;6.010;2023-07-29T14:59:03;2.30;;;1.42;;
70975;SDS011;58635;51.198;6.010;2023-07-29T15:01:30;2.63;;;1.30;;